createdAt,value
2022-10-07T00:02:26.307Z,77.92
2022-10-07T00:04:53.180Z,77.47
2022-10-07T00:07:21.044Z,77.26
2022-10-07T00:09:47.927Z,76.84
2022-10-07T00:12:14.804Z,77.61
2022-10-07T00:14:42.677Z,76.70
2022-10-07T00:17:09.550Z,76.41
2022-10-07T00:19:36.497Z,76.39
2022-10-07T00:22:03.365Z,76.16
2022-10-07T00:24:30.209Z,76.17
2022-10-07T00:26:57.187Z,76.46
2022-10-07T00:29:24.417Z,76.23
2022-10-07T00:31:56.935Z,75.83
2022-10-07T00:34:24.966Z,76.15
2022-10-07T00:36:51.833Z,76.10
2022-10-07T00:39:18.783Z,75.94
2022-10-07T00:41:51.885Z,75.61
2022-10-07T00:44:54.174Z,76.20
2022-10-07T00:47:25.740Z,76.21
2022-10-07T00:49:55.305Z,76.13
2022-10-07T00:52:26.605Z,76.78
2022-10-07T00:54:56.634Z,77.48
2022-10-07T00:57:27.738Z,77.26
2022-10-07T00:59:57.211Z,77.33
2022-10-07T01:02:25.998Z,78.17
2022-10-07T01:04:54.738Z,78.13
2022-10-07T01:07:21.992Z,77.88
2022-10-07T01:09:51.518Z,77.91
2022-10-07T01:12:51.641Z,77.68
2022-10-07T01:15:30.467Z,76.96
2022-10-07T01:18:18.914Z,77.71
2022-10-07T01:21:08.984Z,77.67
2022-10-07T01:23:53.142Z,77.40
2022-10-07T01:26:37.843Z,78.13
2022-10-07T01:29:26.951Z,78.48
2022-10-07T01:32:05.022Z,78.61
2022-10-07T01:34:36.020Z,78.77
2022-10-07T01:37:06.772Z,78.69
2022-10-07T01:39:47.899Z,78.72
2022-10-07T01:42:16.152Z,78.77
2022-10-07T01:44:45.686Z,78.60
2022-10-07T01:47:12.590Z,78.74
2022-10-07T01:49:40.789Z,79.37
2022-10-07T01:52:33.216Z,79.16
2022-10-07T01:55:12.464Z,79.47
2022-10-07T01:57:48.223Z,79.55
2022-10-07T02:00:17.012Z,79.77
2022-10-07T02:03:37.650Z,79.68
2022-10-07T02:06:45.015Z,79.82
2022-10-07T02:09:27.676Z,79.65
2022-10-07T02:12:06.907Z,79.56
2022-10-07T02:14:46.253Z,79.34
2022-10-07T02:17:18.353Z,78.91
2022-10-07T02:19:49.995Z,78.98
2022-10-07T02:22:19.161Z,78.68
2022-10-07T02:24:49.401Z,78.92
2022-10-07T02:27:22.571Z,78.91
2022-10-07T02:29:57.449Z,78.96
2022-10-07T02:32:26.927Z,78.24
2022-10-07T02:34:59.268Z,78.72
2022-10-07T02:37:31.299Z,77.73
2022-10-07T02:39:58.782Z,78.08
2022-10-07T02:42:51.912Z,78.06
2022-10-07T02:45:26.953Z,78.79
2022-10-07T02:48:22.075Z,79.17
2022-10-07T02:50:55.455Z,79.34
2022-10-07T02:53:27.180Z,78.88
2022-10-07T02:55:56.786Z,78.20
2022-10-07T02:58:26.683Z,78.38
2022-10-07T03:00:59.390Z,78.18
2022-10-07T03:03:27.925Z,77.85
2022-10-07T03:05:59.662Z,77.74
2022-10-07T03:08:28.055Z,77.71
2022-10-07T03:10:56.093Z,77.76
2022-10-07T03:13:25.002Z,78.44
2022-10-07T03:15:56.691Z,78.80
2022-10-07T03:18:27.297Z,78.55
2022-10-07T03:21:16.329Z,78.21
2022-10-07T03:23:43.974Z,77.75
2022-10-07T03:26:12.282Z,77.72
2022-10-07T03:28:39.306Z,77.08
2022-10-07T03:31:08.901Z,76.37
2022-10-07T03:33:38.843Z,76.16
2022-10-07T03:36:09.011Z,75.74
2022-10-07T03:38:37.751Z,75.62
2022-10-07T03:41:05.100Z,75.81
2022-10-07T03:43:33.185Z,75.82
2022-10-07T03:46:02.577Z,75.08
2022-10-07T03:48:32.234Z,75.17
2022-10-07T03:50:59.525Z,75.52
2022-10-07T03:53:29.802Z,75.26
2022-10-07T03:55:58.560Z,74.43
2022-10-07T03:58:25.889Z,74.56
2022-10-07T04:00:52.829Z,74.20
2022-10-07T04:03:20.082Z,73.92
2022-10-07T04:05:59.768Z,73.31
2022-10-07T04:08:29.679Z,73.72
2022-10-07T04:10:57.421Z,73.19
2022-10-07T04:13:24.791Z,72.68
2022-10-07T04:15:53.354Z,72.77
2022-10-07T04:18:22.393Z,72.89
2022-10-07T04:20:52.857Z,73.62
2022-10-07T04:23:20.834Z,73.55
2022-10-07T04:25:47.837Z,73.03
2022-10-07T04:28:27.288Z,72.91
2022-10-07T04:31:08.908Z,73.25
2022-10-07T04:33:41.047Z,72.73
2022-10-07T04:36:10.628Z,72.22
2022-10-07T04:38:50.453Z,71.51
2022-10-07T04:41:20.086Z,70.66
2022-10-07T04:43:55.303Z,71.14
2022-10-07T04:46:25.491Z,70.73
2022-10-07T04:48:59.773Z,69.55
2022-10-07T04:51:28.104Z,70.20
2022-10-07T04:53:58.189Z,69.10
2022-10-07T04:56:34.359Z,68.82
2022-10-07T04:59:05.905Z,69.00
2022-10-07T05:01:33.407Z,68.33
2022-10-07T05:04:00.320Z,68.61
2022-10-07T05:06:27.765Z,68.35
2022-10-07T05:08:54.838Z,67.75
2022-10-07T05:11:23.463Z,66.93
2022-10-07T05:14:06.745Z,66.46
2022-10-07T05:16:35.038Z,66.78
2022-10-07T05:19:03.806Z,65.94
2022-10-07T05:21:30.939Z,66.80
2022-10-07T05:23:59.197Z,66.55
2022-10-07T05:26:32.520Z,68.08
2022-10-07T05:29:02.928Z,67.42
2022-10-07T05:31:37.173Z,67.27
2022-10-07T05:34:06.022Z,66.35
2022-10-07T05:36:34.063Z,66.44
2022-10-07T05:39:02.433Z,66.37
2022-10-07T05:41:45.185Z,65.88
2022-10-07T05:44:14.184Z,64.00
2022-10-07T05:46:42.295Z,63.11
2022-10-07T05:49:09.750Z,63.07
2022-10-07T05:51:36.998Z,62.38
2022-10-07T05:54:04.456Z,62.01
2022-10-07T05:56:37.916Z,61.87
2022-10-07T05:59:05.092Z,61.33
2022-10-07T06:01:32.623Z,60.24
2022-10-07T06:04:07.026Z,60.40
2022-10-07T06:06:36.621Z,59.96
2022-10-07T06:09:26.014Z,60.27
2022-10-07T06:12:12.267Z,60.32
2022-10-07T06:14:39.894Z,59.96
2022-10-07T06:17:08.324Z,59.53
2022-10-07T06:19:37.857Z,59.31
2022-10-07T06:22:05.452Z,59.46
2022-10-07T06:24:35.299Z,59.00
2022-10-07T06:27:02.920Z,59.24
2022-10-07T06:29:30.630Z,59.23
2022-10-07T06:31:58.052Z,59.09
2022-10-07T06:34:24.931Z,59.43
2022-10-07T06:36:53.947Z,59.07
2022-10-07T06:39:20.855Z,58.99
2022-10-07T06:41:48.198Z,59.38
2022-10-07T06:44:44.377Z,59.72
2022-10-07T06:47:16.151Z,60.18
2022-10-07T06:49:44.986Z,60.43
2022-10-07T06:52:12.637Z,60.51
2022-10-07T06:54:41.113Z,61.01
2022-10-07T06:57:26.399Z,61.33
2022-10-07T06:59:55.813Z,61.68
2022-10-07T07:02:25.663Z,61.52
2022-10-07T07:04:57.675Z,61.08
2022-10-07T07:07:26.422Z,59.63
2022-10-07T07:09:53.992Z,58.93
2022-10-07T07:12:25.449Z,57.59
2022-10-07T07:14:54.674Z,56.67
2022-10-07T07:17:22.031Z,55.02
2022-10-07T07:19:48.907Z,54.95
2022-10-07T07:22:16.571Z,54.48
2022-10-07T07:24:44.103Z,53.48
2022-10-07T07:27:12.303Z,53.04
2022-10-07T07:29:39.203Z,52.22
2022-10-07T07:32:06.368Z,51.78
2022-10-07T07:34:38.312Z,51.57
2022-10-07T07:37:07.777Z,51.30
2022-10-07T07:39:40.430Z,51.34
2022-10-07T07:42:10.621Z,50.73
2022-10-07T07:44:39.082Z,50.03
2022-10-07T07:47:10.218Z,49.67
2022-10-07T07:49:38.341Z,49.82
2022-10-07T07:52:07.923Z,49.24
2022-10-07T07:54:42.061Z,49.33
2022-10-07T07:57:09.817Z,48.74
2022-10-07T07:59:37.496Z,48.29
2022-10-07T08:02:06.401Z,48.11
2022-10-07T08:04:34.838Z,47.77
2022-10-07T08:07:02.135Z,47.55
2022-10-07T08:09:29.588Z,47.31
2022-10-07T08:11:57.461Z,47.01
2022-10-07T08:14:24.624Z,46.72
2022-10-07T08:16:55.703Z,46.35
2022-10-07T08:19:22.801Z,46.95
2022-10-07T08:21:49.953Z,46.16
2022-10-07T08:24:25.170Z,46.78
2022-10-07T08:26:53.758Z,46.47
2022-10-07T08:29:21.457Z,46.30
2022-10-07T08:31:49.427Z,46.18
2022-10-07T08:34:16.406Z,45.65
2022-10-07T08:36:47.467Z,44.99
2022-10-07T08:39:15.396Z,44.90
2022-10-07T08:42:13.623Z,45.27
2022-10-07T08:44:44.611Z,44.40
2022-10-07T08:47:17.588Z,44.21
2022-10-07T08:49:50.005Z,44.45
2022-10-07T08:52:39.180Z,43.21
2022-10-07T08:55:18.822Z,43.97
2022-10-07T08:57:48.686Z,43.88
2022-10-07T09:00:20.389Z,43.11
2022-10-07T09:03:24.937Z,43.49
2022-10-07T09:05:55.760Z,42.93
2022-10-07T09:08:28.750Z,43.31
2022-10-07T09:11:02.425Z,43.66
2022-10-07T09:13:40.509Z,42.59
2022-10-07T09:16:40.313Z,41.38
2022-10-07T09:19:17.593Z,41.33
2022-10-07T09:21:51.430Z,41.38
2022-10-07T09:24:28.318Z,40.68
2022-10-07T09:26:58.570Z,40.69
2022-10-07T09:29:27.481Z,40.66
2022-10-07T09:31:55.481Z,41.36
2022-10-07T09:34:31.070Z,39.33
2022-10-07T09:37:15.424Z,40.28
2022-10-07T09:39:44.508Z,38.55
2022-10-07T09:42:35.390Z,39.41
2022-10-07T10:16:28.959Z,37.95
2022-10-07T10:19:04.083Z,37.02
2022-10-07T10:21:40.887Z,35.04
2022-10-07T10:24:48.316Z,35.64
2022-10-07T10:27:34.973Z,35.64
2022-10-07T10:30:06.746Z,36.03
2022-10-07T10:33:18.509Z,36.89
2022-10-07T10:35:56.504Z,36.47
2022-10-07T10:38:53.508Z,35.67
2022-10-07T10:41:41.482Z,35.95
2022-10-07T10:44:10.871Z,34.72
2022-10-07T10:47:00.284Z,35.96
2022-10-07T10:49:38.793Z,35.06
2022-10-07T10:52:27.232Z,35.83
2022-10-07T10:55:18.289Z,34.52
2022-10-07T10:58:08.537Z,34.96
2022-10-07T11:00:50.479Z,34.96
2022-10-07T11:03:34.325Z,35.25
2022-10-07T11:06:07.824Z,35.03
2022-10-07T11:08:38.660Z,35.79
2022-10-07T11:11:12.259Z,34.98
2022-10-07T11:14:03.718Z,34.49
2022-10-07T11:16:51.275Z,34.45
2022-10-07T11:19:29.410Z,34.61
2022-10-07T11:22:00.820Z,34.34
2022-10-07T11:24:57.153Z,34.63
2022-10-07T11:27:29.715Z,34.13
2022-10-07T11:30:23.212Z,33.92
2022-10-07T11:33:05.405Z,33.26
2022-10-07T11:35:36.374Z,33.60
2022-10-07T11:38:15.338Z,33.75
2022-10-07T11:40:53.734Z,33.64
2022-10-07T11:43:34.783Z,33.87
2022-10-07T11:46:14.512Z,31.84
2022-10-07T11:48:50.477Z,32.16
2022-10-07T11:51:27.238Z,32.26
2022-10-07T11:53:57.997Z,32.46
2022-10-07T11:56:27.059Z,32.37
2022-10-07T11:59:00.993Z,32.76
2022-10-07T12:01:29.025Z,33.43
2022-10-07T12:04:02.207Z,32.62
2022-10-07T12:06:29.124Z,32.53
2022-10-07T12:08:56.022Z,32.48
2022-10-07T12:11:22.925Z,32.27
2022-10-07T12:13:51.926Z,31.37
2022-10-07T12:16:24.787Z,31.55
2022-10-07T12:19:23.342Z,31.95
2022-10-07T12:21:59.837Z,32.00
2022-10-07T12:24:28.175Z,32.15
2022-10-07T12:27:17.749Z,32.80
2022-10-07T12:29:48.619Z,32.48
2022-10-07T12:32:53.140Z,32.10
2022-10-07T12:35:36.789Z,31.98
2022-10-07T12:38:13.847Z,32.18
2022-10-07T12:40:42.630Z,31.53
2022-10-07T12:43:34.468Z,32.02
2022-10-07T12:46:06.092Z,32.67
2022-10-07T12:48:42.016Z,32.58
2022-10-07T12:51:19.840Z,32.58
2022-10-07T12:53:49.108Z,32.72
2022-10-07T12:56:26.550Z,32.25
2022-10-07T12:59:21.141Z,32.08
2022-10-07T13:01:50.961Z,32.31
2022-10-07T13:04:47.972Z,32.57
2022-10-07T13:07:30.003Z,32.64
2022-10-07T13:10:14.891Z,32.82
2022-10-07T13:13:25.063Z,32.90
2022-10-07T13:16:17.415Z,32.87
2022-10-07T13:18:52.783Z,33.23
2022-10-07T13:21:29.492Z,33.28
2022-10-07T13:23:56.954Z,33.48
2022-10-07T13:26:26.067Z,33.40
2022-10-07T13:28:58.542Z,32.91
2022-10-07T13:31:31.817Z,33.30
2022-10-07T13:34:16.547Z,33.25
2022-10-07T13:36:43.849Z,32.90
2022-10-07T13:39:19.727Z,33.15
2022-10-07T13:41:49.110Z,32.94
2022-10-07T13:44:19.516Z,33.30
2022-10-07T13:47:04.932Z,33.05
2022-10-07T13:49:43.717Z,32.90
2022-10-07T13:52:47.558Z,32.63
2022-10-07T13:55:30.769Z,32.89
2022-10-07T13:58:02.003Z,33.05
2022-10-07T14:00:32.503Z,33.14
2022-10-07T14:03:01.951Z,32.99
2022-10-07T14:05:31.334Z,33.43
2022-10-07T14:08:14.181Z,32.57
2022-10-07T14:10:56.400Z,32.64
2022-10-07T14:13:23.510Z,32.86
2022-10-07T14:15:54.529Z,32.76
2022-10-07T14:18:22.245Z,33.00
2022-10-07T14:20:55.609Z,32.93
2022-10-07T14:23:28.508Z,33.18
2022-10-07T14:26:04.341Z,33.24
2022-10-07T14:28:33.791Z,33.18
2022-10-07T14:31:25.479Z,33.81
2022-10-07T14:34:32.994Z,34.13
2022-10-07T14:37:20.101Z,33.94
2022-10-07T14:39:49.557Z,34.46
2022-10-07T14:42:35.893Z,33.92
2022-10-07T14:45:08.379Z,34.05
2022-10-07T14:47:38.020Z,34.00
2022-10-07T14:50:05.340Z,34.37
2022-10-07T14:52:52.602Z,34.29
2022-10-07T14:55:26.514Z,34.60
2022-10-07T14:57:54.224Z,34.01
2022-10-07T15:00:23.598Z,33.84
2022-10-07T15:02:50.936Z,34.84
2022-10-07T15:05:19.235Z,34.31
2022-10-07T15:07:46.358Z,34.38
2022-10-07T15:10:16.530Z,34.63
2022-10-07T15:12:44.425Z,34.99
2022-10-07T15:15:12.902Z,35.23
2022-10-07T15:17:41.015Z,35.19
2022-10-07T15:20:10.599Z,35.45
2022-10-07T15:22:38.239Z,36.06
2022-10-07T15:25:06.782Z,36.21
2022-10-07T15:27:33.976Z,36.18
2022-10-07T15:30:01.037Z,36.75
2022-10-07T15:32:30.701Z,37.23
2022-10-07T15:34:57.910Z,37.34
2022-10-07T15:37:27.982Z,37.65
2022-10-07T15:39:55.097Z,37.23
2022-10-07T15:42:24.630Z,37.89
2022-10-07T15:44:52.309Z,37.84
2022-10-07T15:47:19.654Z,38.23
2022-10-07T15:49:46.675Z,38.80
2022-10-07T15:52:13.604Z,38.39
2022-10-07T15:54:40.559Z,39.41
2022-10-07T15:57:08.511Z,38.72
2022-10-07T15:59:35.888Z,39.39
2022-10-07T16:02:04.507Z,39.71
2022-10-07T16:04:32.142Z,40.48
2022-10-07T16:06:59.659Z,40.94
2022-10-07T16:09:26.843Z,41.21
2022-10-07T16:11:54.235Z,42.07
2022-10-07T16:14:21.130Z,41.84
2022-10-07T16:16:48.050Z,42.07
2022-10-07T16:19:15.008Z,43.50
2022-10-07T16:21:43.051Z,44.16
2022-10-07T16:24:23.742Z,44.64
2022-10-07T16:26:51.008Z,45.33
2022-10-07T16:29:41.270Z,46.02
2022-10-07T16:32:12.876Z,45.97
2022-10-07T16:34:43.512Z,46.54
2022-10-07T16:37:11.991Z,46.44
2022-10-07T16:39:38.966Z,46.39
2022-10-07T16:42:06.057Z,46.68
2022-10-07T16:44:33.010Z,46.62
2022-10-07T16:47:00.787Z,46.62
2022-10-07T16:49:30.368Z,46.79
2022-10-07T16:51:58.260Z,47.05
2022-10-07T16:54:25.490Z,47.12
2022-10-07T16:56:53.087Z,47.39
2022-10-07T16:59:24.709Z,47.61
2022-10-07T17:01:56.910Z,47.90
2022-10-07T17:04:25.430Z,48.33
2022-10-07T17:06:53.205Z,48.32
2022-10-07T17:09:21.915Z,48.50
2022-10-07T17:11:48.962Z,48.74
2022-10-07T17:14:18.790Z,49.11
2022-10-07T17:16:48.588Z,49.13
2022-10-07T17:19:18.239Z,49.55
2022-10-07T17:21:47.772Z,49.58
2022-10-07T17:24:18.612Z,50.23
2022-10-07T17:26:46.069Z,50.41
2022-10-07T17:29:15.159Z,50.56
2022-10-07T17:31:43.623Z,51.33
2022-10-07T17:34:11.961Z,51.66
2022-10-07T17:36:40.645Z,51.91
2022-10-07T17:39:08.038Z,52.08
2022-10-07T17:41:37.573Z,52.44
2022-10-07T17:44:10.589Z,52.82
2022-10-07T17:46:39.463Z,52.42
2022-10-07T17:49:08.681Z,52.84
2022-10-07T17:51:37.367Z,53.05
2022-10-07T17:54:06.219Z,52.79
2022-10-07T17:56:34.800Z,53.27
2022-10-07T17:59:02.313Z,53.92
2022-10-07T18:01:34.163Z,54.57
2022-10-07T18:04:03.721Z,54.90
2022-10-07T18:06:33.939Z,55.04
2022-10-07T18:09:04.660Z,55.08
2022-10-07T18:11:50.643Z,55.53
2022-10-07T18:14:57.087Z,56.06
2022-10-07T18:17:24.800Z,56.94
2022-10-07T18:19:51.884Z,56.87
2022-10-07T18:22:19.454Z,57.34
2022-10-07T18:24:46.365Z,57.56
2022-10-07T18:27:13.652Z,57.74
2022-10-07T18:29:40.640Z,57.69
2022-10-07T18:32:07.703Z,58.26
2022-10-07T18:34:34.976Z,58.63
2022-10-07T18:37:02.046Z,58.64
2022-10-07T18:39:29.789Z,58.47
2022-10-07T18:41:58.388Z,59.30
2022-10-07T18:44:26.005Z,59.29
2022-10-07T18:46:53.566Z,59.51
2022-10-07T18:49:20.599Z,59.86
2022-10-07T18:51:50.557Z,59.34
2022-10-07T18:54:21.399Z,59.28
2022-10-07T18:56:49.631Z,59.96
2022-10-07T18:59:20.208Z,60.12
2022-10-07T19:01:50.432Z,60.25
2022-10-07T19:04:18.975Z,60.58
2022-10-07T19:06:46.606Z,61.03
2022-10-07T19:09:19.856Z,60.87
2022-10-07T19:11:47.318Z,60.76
2022-10-07T19:14:14.770Z,60.74
2022-10-07T19:16:49.126Z,61.26
2022-10-07T19:19:19.422Z,61.43
2022-10-07T19:21:54.886Z,61.75
2022-10-07T19:24:42.725Z,61.95
2022-10-07T19:27:09.690Z,62.10
2022-10-07T19:29:36.642Z,62.07
2022-10-07T19:32:08.043Z,61.70
2022-10-07T19:34:35.325Z,61.95
2022-10-07T19:37:02.263Z,62.57
2022-10-07T19:39:29.222Z,62.49
2022-10-07T19:41:57.578Z,62.45
2022-10-07T19:44:24.888Z,62.90
2022-10-07T19:46:54.286Z,62.91
2022-10-07T19:49:21.311Z,63.38
2022-10-07T19:51:48.214Z,63.67
2022-10-07T19:54:15.211Z,63.57
2022-10-07T19:56:42.246Z,63.27
2022-10-07T19:59:11.688Z,64.29
2022-10-07T20:01:43.997Z,64.46
2022-10-07T20:04:16.442Z,64.47
2022-10-07T20:06:43.915Z,64.79
2022-10-07T20:09:14.411Z,65.17
2022-10-07T20:11:41.642Z,65.72
2022-10-07T20:14:10.122Z,65.90
2022-10-07T20:16:38.314Z,65.84
2022-10-07T20:19:07.955Z,65.99
2022-10-07T20:21:37.764Z,66.17
2022-10-07T20:24:05.972Z,66.35
2022-10-07T20:26:38.570Z,67.25
2022-10-07T20:29:10.161Z,67.33
2022-10-07T20:31:39.383Z,67.88
2022-10-07T20:34:08.863Z,68.97
2022-10-07T20:36:37.533Z,70.25
2022-10-07T20:39:32.447Z,70.29
2022-10-07T20:42:17.891Z,69.94
2022-10-07T20:44:47.180Z,69.99
2022-10-07T20:47:14.158Z,70.31
2022-10-07T20:49:42.290Z,70.42
2022-10-07T20:52:16.904Z,70.19
2022-10-07T20:54:44.861Z,70.24
2022-10-07T20:57:13.639Z,70.72
2022-10-07T20:59:40.589Z,70.39
2022-10-07T21:02:09.711Z,69.59
2022-10-07T21:04:36.971Z,69.58
2022-10-07T21:07:03.868Z,69.57
2022-10-07T21:09:36.504Z,70.23
2022-10-07T21:12:07.662Z,70.35
2022-10-07T21:14:37.749Z,71.08
2022-10-07T21:17:05.459Z,71.01
2022-10-07T21:19:33.048Z,70.25
2022-10-07T21:22:00.018Z,69.99
2022-10-07T21:24:26.926Z,70.25
2022-10-07T21:26:53.782Z,70.49
2022-10-07T21:29:20.646Z,71.52
2022-10-07T21:31:47.482Z,71.54
2022-10-07T21:34:14.349Z,71.92
2022-10-07T21:36:50.428Z,72.50
2022-10-07T21:39:20.117Z,72.06
2022-10-07T21:41:48.184Z,72.20
2022-10-07T21:44:15.472Z,72.56
2022-10-07T21:46:42.947Z,73.48
2022-10-07T21:49:10.085Z,73.54
2022-10-07T21:51:38.157Z,73.39
2022-10-07T21:54:05.683Z,74.34
2022-10-07T21:56:33.425Z,74.80
2022-10-07T21:59:01.673Z,75.03
2022-10-07T22:01:29.106Z,74.83
2022-10-07T22:03:58.655Z,75.78
2022-10-07T22:06:45.404Z,75.73
2022-10-07T22:09:14.455Z,75.93
2022-10-07T22:11:41.767Z,75.79
2022-10-07T22:14:12.593Z,75.99
2022-10-07T22:16:40.647Z,76.29
2022-10-07T22:19:07.835Z,76.52
2022-10-07T22:21:39.291Z,77.04
2022-10-07T22:24:07.954Z,76.42
2022-10-07T22:26:42.182Z,76.82
2022-10-07T22:29:10.210Z,77.21
2022-10-07T22:31:37.850Z,77.66
2022-10-07T22:34:06.380Z,77.68
2022-10-07T22:36:33.546Z,77.89
2022-10-07T22:39:00.593Z,77.50
2022-10-07T22:41:28.148Z,78.42
2022-10-07T22:43:55.248Z,78.29
2022-10-07T22:46:28.456Z,78.36
2022-10-07T22:48:58.273Z,78.53
2022-10-07T22:51:28.624Z,78.41
2022-10-07T22:53:56.949Z,78.13
2022-10-07T22:56:25.856Z,78.46
2022-10-07T22:58:58.146Z,78.00
2022-10-07T23:01:29.598Z,78.42
2022-10-07T23:04:00.973Z,78.38
2022-10-07T23:06:28.187Z,78.38
2022-10-07T23:08:56.400Z,78.72
2022-10-07T23:11:25.670Z,78.86
2022-10-07T23:13:54.619Z,79.14
2022-10-07T23:16:26.130Z,78.84
2022-10-07T23:18:53.710Z,79.35
2022-10-07T23:21:26.231Z,79.71
2022-10-07T23:23:56.765Z,80.29
2022-10-07T23:26:27.144Z,79.97
2022-10-07T23:28:56.674Z,80.88
2022-10-07T23:31:27.478Z,80.53
2022-10-07T23:33:56.073Z,81.11
2022-10-07T23:36:25.101Z,81.67
2022-10-07T23:38:52.794Z,81.75
2022-10-07T23:41:22.233Z,81.50
2022-10-07T23:43:50.646Z,81.37
2022-10-07T23:46:19.480Z,81.72
2022-10-07T23:48:47.172Z,81.55
2022-10-07T23:51:19.416Z,81.40
2022-10-07T23:53:47.445Z,81.54
2022-10-07T23:56:14.747Z,81.99
2022-10-07T23:58:41.719Z,82.17
